Glendale Heights, Illinois
Current Conditions -  °F | °C
As of 4:52 PM on Wednesday 22 Oct 2014 (Local Time) from KDPA Reporting Station
Clear Clear  
Wind Chill: 57°   Ceiling: Unl
Heat Index: 57°   Visibility: 10mi
Dew Point: 37°   Wind: 6mph
Humidity: 47%   Direction: 90°E
Pressure: 30.26"   Gusts: NA
Location:  41.92°N, 88.07°W
Report Text: KDPA 222152Z 09005KT 10SM CLR 14/03 A3026 RMK AO2 SLP251 T01390028
Loading
Personal Weather Stations






























Interactive Weather Map
Tropical Storm Tracking
New forecast layout! Learn more

10-Day Weather Forecast

Advertisements
Track Severe Weather on mobile